METAR Rapporter från flygplatser

 

ESTA - Ängelholm, Sweden
Distance from station: SSV 17km
Uppdaterad: 2019-07-22 04:50
Övervägande molnigt
Övervägande molnigt
 Vind från NV
Vind: NV 20 km/h
Temperatur: 15°C
Daggpunkt: 12°C
Luftfuktighet: 82%
Barometer: 1019 hPa
Clouds: Övervägande molnigt
Visibility: 10 km
Cloud details: Övervägande molnigt 427 m
2019/07/22 02:50 ESTA 220250Z AUTO 31011KT 9999 BKN014/// 15/12 Q1019
ESMT - Halmstad, Sweden
Distance from station: N 26km
Uppdaterad: 2019-07-22 04:50
Klart
Klart
 Vind från V
Vind: V 22 km/h
Temperatur: 15°C
Daggpunkt: 12°C
Luftfuktighet: 82%
Barometer: 1018 hPa
Clouds: Klart
Visibility: 10 km
2019/07/22 02:50 ESMT 220250Z AUTO 27012KT 9999 NCD 15/12 Q1018
 
ESTL - Ljungbyhed, Sweden
Distance from station: SSO 45km
Uppdaterad: 2019-07-22 04:50

 Vind från VSV
Vind: VSV 6 km/h
Temperatur: 12°C
Daggpunkt: 12°C
Luftfuktighet: 100%
Barometer: 1019 hPa
Visibility: 10 km
2019/07/22 02:50 ESTL 220250Z AUTO 25003KT 9999 ///////// 12/12 Q1019
EKCH - Copenhagen/Kastrup, Denmark
Distance from station: S 92km
Uppdaterad: 2019-07-22 04:50
Klart
Klart
 Vind från V
Vind: V 7 km/h
Temperatur: 13°C
Daggpunkt: 12°C
Luftfuktighet: 94%
Barometer: 1020 hPa
Clouds: Klart
Visibility: 10 km
2019/07/22 02:50 EKCH 220250Z AUTO 27004KT 9999 NCD 13/12 Q1020 NOSIG
 
ESMK - Kristianstad/Everöd, Sweden
Distance from station: SO 93km
Uppdaterad: 2019-07-22 04:50
Klart
Klart
 Vind från V
Vind: V 9 km/h
Temperatur: 13°C
Daggpunkt: 12°C
Luftfuktighet: 94%
Barometer: 1019 hPa
Clouds: Klart
Visibility: 10 km
2019/07/22 02:50 ESMK 220250Z AUTO 27005KT 9999 NCD 13/12 Q1019
ESMS - Malmö/Sturup, Sweden
Distance from station: SSO 104km
Uppdaterad: 2019-07-22 04:50
Klart
Klart
 Vind från VNV
Vind: VNV 9 km/h
Temperatur: 13°C
Daggpunkt: 12°C
Luftfuktighet: 94%
Barometer: 1020 hPa
Summering: Klart
Visibility: greater than 10 km
2019/07/22 02:50 ESMS 220250Z 29005KT CAVOK 13/12 Q1020
 
EKRK - Copenhagen/Roskilde, Denmark
Distance from station: SSV 108km
Uppdaterad: 2019-07-22 04:50
Klart
Klart
 Vind från V
Vind: V 7 km/h
Temperatur: 12°C
Daggpunkt: 12°C
Luftfuktighet: 100%
Barometer: 1020 hPa
Clouds: Klart
Visibility: 8 km
2019/07/22 02:50 EKRK 220250Z AUTO 27004KT 8000 NCD 12/12 Q1020
ESMX - Växjö/Kronoberg, Sweden
Distance from station: ONO 124km
Uppdaterad: 2019-07-22 04:50
Helmulet
Helmulet
 Vind från V
Vind: V 13 km/h
Temperatur: 13°C
Daggpunkt: 13°C
Luftfuktighet: 100%
Barometer: 1017 hPa
Clouds: Helmulet
Visibility: 10 km
Cloud details: Helmulet 427 m
2019/07/22 02:50 ESMX 220250Z AUTO 26007KT 9999 OVC014/// 13/13 Q1017
 
EKAH - Tirstrup, Denmark
Distance from station: V 141km
Uppdaterad: 2019-07-22 04:50
Övervägande molnigt
Övervägande molnigt
 Vind från VSV
Vind: VSV 11 km/h
Temperatur: 14°C
Daggpunkt: 13°C
Luftfuktighet: 94%
Barometer: 1020 hPa
Clouds: Övervägande molnigt
Visibility: 10 km
Cloud details: Övervägande molnigt 6401 m
2019/07/22 02:50 EKAH 220250Z AUTO 24006KT 210V270 9999NDV BKN210/// 14/13 Q1020
ESGG - Göteborg/Landvetter, Sweden
Distance from station: NNV 142km
Uppdaterad: 2019-07-22 04:50
Delvis molnigt
Delvis molnigt
 Vind från VSV
Vind: VSV 19 km/h
Temperatur: 13°C
Daggpunkt: 11°C
Luftfuktighet: 88%
Barometer: 1017 hPa
Clouds: Delvis molnigt
Visibility: 10 km
Cloud details: Delvis molnigt 366 m
2019/07/22 02:50 ESGG 220250Z 25010KT 9999 SCT012 13/11 Q1017
 
ESDF - Ronneby, Sweden
Distance from station: O 147km
Uppdaterad: 2019-07-22 04:50
Klart
Klart
 Vind från V
Vind: V 6 km/h
Temperatur: 12°C
Daggpunkt: 12°C
Luftfuktighet: 100%
Barometer: 1018 hPa
Clouds: Klart
Visibility: 10 km
2019/07/22 02:50 ESDF 220250Z AUTO 28003KT 9999 NCD 12/12 Q1018
ESGP - Göteborg/Säve, Sweden
Distance from station: NNV 161km
Uppdaterad: 2017-01-02 11:20
NOT Current
Klart
Klart
 Vind från calm
Vind: Vindstilla
Temperatur: -2°C
Daggpunkt: -4°C
Luftfuktighet: 86%
Barometer: 1012 hPa
Clouds: Klart
Visibility: 10 km
2017/01/02 10:20 ESGP 021020Z AUTO 00000KT 9999 NCD M02/M04 Q1012
 
ESGJ - Jönköping Airport, Sweden
Distance from station: NNO 164km
Uppdaterad: 2019-07-22 04:50
Helmulet
Helmulet
 Vind från V
Vind: V 17 km/h
Temperatur: 14°C
Daggpunkt: 12°C
Luftfuktighet: 88%
Barometer: 1016 hPa
Clouds: Helmulet
Visibility: 10 km
Cloud details: Helmulet 488 m
2019/07/22 02:50 ESGJ 220250Z AUTO 26009KT 9999 OVC016/// 14/12 Q1016
EKAV - Avno, Denmark
Distance from station: SSV 168km
Uppdaterad: 2016-10-04 06:20
NOT Current
Klart
Klart
 
Barometer: 1039 hPa
Clouds: Klart
Visibility: 10 km
2016/10/04 04:20 EKAV 040420Z AUTO ///// 9999NDV NCD ///// Q1039
 
EKRN - Rönne, Denmark
Distance from station: SO 191km
Uppdaterad: 2019-07-22 04:50
Enstaka moln
Enstaka moln
 Vind från VNV
Vind: VNV 20 km/h
Temperatur: 16°C
Daggpunkt: 14°C
Luftfuktighet: 88%
Barometer: 1020 hPa
Clouds: Enstaka moln
Visibility: 10 km
Cloud details: Enstaka moln 427 m
2019/07/22 02:50 EKRN 220250Z AUTO 30011KT 9999 FEW014/// 16/14 Q1020
EKOD - Odense/Beldringe, Denmark
Distance from station: VSV 193km
Uppdaterad: 2019-07-21 20:50
NOT Current
Enstaka moln
Enstaka moln
 Vind från VSV
Vind: VSV 17 km/h
Temperatur: 17°C
Daggpunkt: 13°C
Luftfuktighet: 77%
Barometer: 1019 hPa
Clouds: Enstaka moln
Visibility: 10 km
Cloud details: Enstaka moln 610 m
2019/07/21 18:50 EKOD 211850Z 25009KT 9999 FEW020 17/13 Q1019
 
EKYT - AAlborg, Denmark
Distance from station: VNV 199km
Uppdaterad: 2019-07-22 04:50
Övervägande molnigt
Övervägande molnigt
 Vind från SV
Vind: SV 9 km/h
Temperatur: 14°C
Daggpunkt: 13°C
Luftfuktighet: 94%
Barometer: 1018 hPa
Clouds: Övervägande molnigt
Visibility: 10 km
Cloud details: Enstaka moln 152 m
Delvis molnigt 244 m
Övervägande molnigt 335 m
Övervägande molnigt 7315 m
2019/07/22 02:50 EKYT 220250Z AUTO 23005KT 9999 FEW005/// SCT008/// BKN011/// BKN240/// 14/13 Q1018
EKSN - Sindal Airport, Denmark
Distance from station: NV 201km
Uppdaterad: 2019-07-19 15:50
NOT Current
Lätt regn, Showers, Övervägande molnigt
Lätt regn, Showers, Övervägande molnigt
 Vind från NV
Vind: NV 7 km/h
Temperatur: 16°C
Daggpunkt: 15°C
Luftfuktighet: 94%
Barometer: 1012 hPa
Summering: Lätt regn, Showers
Clouds: Övervägande molnigt
Visibility: 5 km
Cloud details: Delvis molnigt 152 m
Övervägande molnigt 610 m
2019/07/19 13:50 EKSN 191350Z 31004KT 5000 -SHRA SCT005 BKN020 16/15 Q1012
 
ESMQ - Kalmar, Sweden
Distance from station: O 211km
Uppdaterad: 2019-07-22 04:50
Klart
Klart
 Vind från V
Vind: V 13 km/h
Temperatur: 14°C
Daggpunkt: 12°C
Luftfuktighet: 88%
Barometer: 1016 hPa
Clouds: Klart
Visibility: 10 km
2019/07/22 02:50 ESMQ 220250Z AUTO 26007KT 9999 NCD 14/12 Q1016
ESGT - Trollhättan, Sweden
Distance from station: N 212km
Uppdaterad: 2019-07-22 04:50
Klart
Klart
 Vind från SSV
Vind: SSV 11 km/h
Temperatur: 14°C
Daggpunkt: 12°C
Luftfuktighet: 88%
Barometer: 1015 hPa
Clouds: Klart
Visibility: 10 km
2019/07/22 02:50 ESGT 220250Z AUTO 21006KT 9999 NCD 14/12 Q1015